createdAt,value
2019-05-18T00:01:42.856Z,24.63
2019-05-18T00:04:09.629Z,21.17
2019-05-18T00:06:36.425Z,21.13
2019-05-18T00:09:04.866Z,20.93
2019-05-18T00:11:32.275Z,22.50
2019-05-18T00:13:59.080Z,22.00
2019-05-18T00:16:25.867Z,21.10
2019-05-18T00:18:52.623Z,20.73
2019-05-18T00:21:19.536Z,24.43
2019-05-18T00:23:46.646Z,24.70
2019-05-18T00:26:13.830Z,22.90
2019-05-18T00:28:41.267Z,28.37
2019-05-18T00:31:08.048Z,25.53
2019-05-18T00:33:34.854Z,24.67
2019-05-18T00:36:01.802Z,23.07
2019-05-18T00:38:28.583Z,24.73
2019-05-18T00:40:55.677Z,23.70
2019-05-18T00:43:22.531Z,21.60
2019-05-18T00:45:49.348Z,23.27
2019-05-18T00:48:16.086Z,27.37
2019-05-18T00:50:42.872Z,26.80
2019-05-18T00:53:09.667Z,25.57
2019-05-18T00:55:36.421Z,25.63
2019-05-18T00:58:03.321Z,26.80
2019-05-18T01:00:30.488Z,27.00
2019-05-18T01:02:57.219Z,27.77
2019-05-18T01:05:24.108Z,26.67
2019-05-18T01:07:51.497Z,25.90
2019-05-18T01:10:18.414Z,27.77
2019-05-18T01:12:45.169Z,26.07
2019-05-18T01:15:12.357Z,27.33
2019-05-18T01:17:39.174Z,25.27
2019-05-18T01:20:06.520Z,24.27
2019-05-18T01:22:33.367Z,25.17
2019-05-18T01:25:00.247Z,27.53
2019-05-18T01:27:26.992Z,23.37
2019-05-18T01:29:54.003Z,24.80
2019-05-18T01:32:20.732Z,28.53
2019-05-18T01:34:47.759Z,30.33
2019-05-18T01:37:14.851Z,31.63
2019-05-18T01:39:41.583Z,29.60
2019-05-18T01:42:08.323Z,30.17
2019-05-18T01:44:35.112Z,26.60
2019-05-18T01:47:02.000Z,24.07
2019-05-18T01:49:28.767Z,27.23
2019-05-18T01:51:55.508Z,29.00
2019-05-18T01:54:22.238Z,32.53
2019-05-18T01:56:49.102Z,29.13
2019-05-18T01:59:15.758Z,30.90
2019-05-18T02:01:42.623Z,35.80
2019-05-18T02:04:09.383Z,35.50
2019-05-18T02:06:36.119Z,37.30
2019-05-18T02:09:06.291Z,39.83
2019-05-18T02:11:33.313Z,39.40
2019-05-18T02:14:00.183Z,38.27
2019-05-18T02:16:27.876Z,33.10
2019-05-18T02:18:55.018Z,31.90
2019-05-18T02:21:21.983Z,35.83
2019-05-18T02:23:48.722Z,38.03
2019-05-18T02:26:15.366Z,36.37
2019-05-18T02:28:42.268Z,35.13
2019-05-18T02:31:09.162Z,34.17
2019-05-18T02:33:36.287Z,34.17
2019-05-18T02:36:03.183Z,38.53
2019-05-18T02:38:29.959Z,40.87
2019-05-18T02:40:56.713Z,40.90
2019-05-18T02:43:23.596Z,39.17
2019-05-18T02:45:50.454Z,32.80
2019-05-18T02:48:17.139Z,36.80
2019-05-18T02:50:44.055Z,34.70
2019-05-18T02:53:11.731Z,36.43
2019-05-18T02:55:38.472Z,39.03
2019-05-18T02:58:05.432Z,38.77
2019-05-18T03:00:32.306Z,40.93
2019-05-18T03:02:59.154Z,40.77
2019-05-18T03:05:25.980Z,39.50
2019-05-18T03:07:52.841Z,38.73
2019-05-18T03:10:19.990Z,38.37
2019-05-18T03:12:46.888Z,39.63
2019-05-18T03:15:14.187Z,42.10
2019-05-18T03:17:41.281Z,39.53
2019-05-18T03:20:08.197Z,45.63
2019-05-18T03:22:35.037Z,40.70
2019-05-18T03:25:02.035Z,34.37
2019-05-18T03:27:28.829Z,42.27
2019-05-18T03:29:55.563Z,42.80
2019-05-18T03:32:22.338Z,42.47
2019-05-18T03:34:49.094Z,44.83
2019-05-18T03:37:15.885Z,44.63
2019-05-18T03:39:42.660Z,48.47
2019-05-18T03:42:09.508Z,48.00
2019-05-18T03:44:36.350Z,47.87
2019-05-18T03:47:03.192Z,52.77
2019-05-18T03:49:29.962Z,59.63
2019-05-18T03:51:56.905Z,55.67
2019-05-18T03:54:23.650Z,54.90
2019-05-18T03:56:50.439Z,52.97
2019-05-18T03:59:17.188Z,51.67
2019-05-18T04:01:44.018Z,54.47
2019-05-18T04:04:10.777Z,53.40
2019-05-18T04:06:37.523Z,60.00
2019-05-18T04:09:05.030Z,54.80
2019-05-18T04:11:31.766Z,50.23
2019-05-18T04:13:58.527Z,54.73
2019-05-18T04:16:25.301Z,55.67
2019-05-18T04:18:52.008Z,56.10
2019-05-18T04:21:18.855Z,53.83
2019-05-18T04:23:46.302Z,57.07
2019-05-18T04:26:13.334Z,60.63
2019-05-18T04:28:40.222Z,57.97
2019-05-18T04:31:06.969Z,60.00
2019-05-18T04:33:33.990Z,59.97
2019-05-18T04:36:00.935Z,57.07
2019-05-18T04:38:27.678Z,55.70
2019-05-18T04:40:54.315Z,53.43
2019-05-18T04:43:21.125Z,59.77
2019-05-18T04:45:47.970Z,53.37
2019-05-18T04:48:14.958Z,49.87
2019-05-18T04:50:41.706Z,54.43
2019-05-18T04:53:08.445Z,55.03
2019-05-18T04:55:35.242Z,60.67
2019-05-18T04:58:01.865Z,63.40
2019-05-18T05:00:28.609Z,64.73
2019-05-18T05:02:55.403Z,65.97
2019-05-18T05:05:23.112Z,67.50
2019-05-18T05:07:50.117Z,70.97
2019-05-18T05:10:17.586Z,63.83
2019-05-18T05:12:44.704Z,65.67
2019-05-18T05:15:11.822Z,60.77
2019-05-18T05:17:38.839Z,59.27
2019-05-18T05:20:18.742Z,58.03
2019-05-18T05:22:35.082Z,56.60
2019-05-18T05:25:01.880Z,52.90
2019-05-18T05:27:28.898Z,49.33
2019-05-18T05:29:57.219Z,51.07
2019-05-18T05:32:25.014Z,48.13
2019-05-18T05:34:52.399Z,48.27
2019-05-18T05:37:19.241Z,46.97
2019-05-18T05:39:46.331Z,44.63
2019-05-18T05:42:13.531Z,43.97
2019-05-18T05:44:40.671Z,40.40
2019-05-18T05:47:09.372Z,38.40
2019-05-18T05:49:36.357Z,38.40
2019-05-18T05:52:03.622Z,38.80
2019-05-18T05:54:30.893Z,36.53
2019-05-18T05:56:58.452Z,36.67
2019-05-18T05:59:25.891Z,31.23
2019-05-18T06:01:54.148Z,28.70
2019-05-18T06:04:21.202Z,27.87
2019-05-18T06:06:48.341Z,27.33
2019-05-18T06:09:15.441Z,22.97
2019-05-18T06:11:43.026Z,23.33
2019-05-18T06:14:10.006Z,21.23
2019-05-18T06:16:36.886Z,22.60
2019-05-18T06:19:03.798Z,21.77
2019-05-18T06:21:30.981Z,22.83
2019-05-18T06:23:57.728Z,21.87
2019-05-18T06:26:24.498Z,21.33
2019-05-18T06:28:51.403Z,22.60
2019-05-18T06:31:18.185Z,23.37
2019-05-18T06:33:44.938Z,19.03
2019-05-18T06:36:12.180Z,19.90
2019-05-18T06:38:39.042Z,18.17
2019-05-18T06:41:07.246Z,18.00
2019-05-18T06:43:34.174Z,16.90
2019-05-18T06:46:00.944Z,18.30
2019-05-18T06:48:27.745Z,15.77
2019-05-18T06:51:06.888Z,15.43
2019-05-18T06:53:23.719Z,15.63
2019-05-18T06:55:50.564Z,14.77
2019-05-18T06:58:17.501Z,14.70
2019-05-18T07:00:44.390Z,13.93
2019-05-18T07:03:11.243Z,14.37
2019-05-18T07:05:38.168Z,14.47
2019-05-18T07:08:04.943Z,14.40
2019-05-18T07:10:32.069Z,14.60
2019-05-18T07:12:59.904Z,16.50
2019-05-18T07:15:26.676Z,13.77
2019-05-18T07:17:53.754Z,13.40
2019-05-18T07:20:20.613Z,14.17
2019-05-18T07:22:47.762Z,13.43
2019-05-18T07:25:14.650Z,12.17
2019-05-18T07:27:41.800Z,13.27
2019-05-18T07:30:08.906Z,13.37
2019-05-18T07:32:36.471Z,11.93
2019-05-18T07:35:04.354Z,11.77
2019-05-18T07:37:31.272Z,11.93
2019-05-18T07:39:58.191Z,11.60
2019-05-18T07:42:24.944Z,13.37
2019-05-18T07:44:51.966Z,12.73
2019-05-18T07:47:18.920Z,11.97
2019-05-18T07:49:45.767Z,11.57
2019-05-18T07:52:12.676Z,11.87
2019-05-18T07:54:39.576Z,14.47
2019-05-18T07:57:06.521Z,11.63
2019-05-18T07:59:33.412Z,11.00
2019-05-18T08:02:06.372Z,10.67
2019-05-18T08:04:33.629Z,9.70
2019-05-18T08:07:00.772Z,10.30
2019-05-18T08:09:27.583Z,10.10
2019-05-18T08:11:54.463Z,9.60
2019-05-18T08:14:21.242Z,9.13
2019-05-18T08:16:48.178Z,9.37
2019-05-18T08:19:15.041Z,10.70
2019-05-18T08:21:52.619Z,9.33
2019-05-18T08:24:10.816Z,9.00
2019-05-18T08:26:37.703Z,8.20
2019-05-18T08:29:04.511Z,10.27
2019-05-18T08:31:31.387Z,8.07
2019-05-18T08:33:58.301Z,8.40
2019-05-18T08:36:25.065Z,8.03
2019-05-18T08:38:52.185Z,8.17
2019-05-18T08:41:19.102Z,7.97
2019-05-18T08:43:45.969Z,8.27
2019-05-18T08:46:12.878Z,7.33
2019-05-18T08:48:39.898Z,7.50
2019-05-18T08:51:07.004Z,6.67
2019-05-18T08:53:33.919Z,6.17
2019-05-18T08:56:00.925Z,6.70
2019-05-18T08:58:27.764Z,7.47
2019-05-18T09:00:54.814Z,6.93
2019-05-18T09:03:21.584Z,6.87
2019-05-18T09:05:48.400Z,5.90
2019-05-18T09:08:15.185Z,6.13
2019-05-18T09:10:42.045Z,7.00
2019-05-18T09:13:08.938Z,5.77
2019-05-18T09:15:36.361Z,7.73
2019-05-18T09:18:04.974Z,6.63
2019-05-18T09:20:32.107Z,8.20
2019-05-18T09:22:59.106Z,6.33
2019-05-18T09:25:26.393Z,6.83
2019-05-18T09:27:53.198Z,6.80
2019-05-18T09:30:20.047Z,6.97
2019-05-18T09:32:46.853Z,6.73
2019-05-18T09:35:14.126Z,6.23
2019-05-18T09:37:41.023Z,5.47
2019-05-18T09:40:09.190Z,6.00
2019-05-18T09:42:36.040Z,5.97
2019-05-18T09:45:03.702Z,6.53
2019-05-18T09:47:30.479Z,5.97
2019-05-18T09:49:57.449Z,6.00
2019-05-18T09:52:43.554Z,7.80
2019-05-18T09:54:53.600Z,5.20
2019-05-18T09:57:20.774Z,5.67
2019-05-18T09:59:47.957Z,5.43
2019-05-18T10:02:14.871Z,6.30
2019-05-18T10:04:42.079Z,5.23
2019-05-18T10:07:08.962Z,5.10
2019-05-18T10:09:39.395Z,6.97
2019-05-18T10:12:04.999Z,5.07
2019-05-18T10:14:31.863Z,4.60
2019-05-18T10:16:59.003Z,4.30
2019-05-18T10:19:25.906Z,4.83
2019-05-18T10:21:52.951Z,6.07
2019-05-18T10:24:19.792Z,4.47
2019-05-18T10:26:47.198Z,5.93
2019-05-18T10:29:13.971Z,5.13
2019-05-18T10:31:40.795Z,5.43
2019-05-18T10:34:07.844Z,5.10
2019-05-18T10:36:35.057Z,5.80
2019-05-18T10:39:02.004Z,5.03
2019-05-18T10:41:28.911Z,6.67
2019-05-18T10:43:55.672Z,5.73
2019-05-18T10:46:22.759Z,5.40
2019-05-18T10:48:49.629Z,5.07
2019-05-18T10:51:16.537Z,4.90
2019-05-18T10:53:43.373Z,5.30
2019-05-18T10:56:10.577Z,5.30
2019-05-18T10:58:37.348Z,5.30
2019-05-18T11:01:04.265Z,5.30
2019-05-18T11:03:31.134Z,4.63
2019-05-18T11:05:57.950Z,5.30
2019-05-18T11:08:24.830Z,5.03
2019-05-18T11:10:51.757Z,5.00
2019-05-18T11:13:18.557Z,5.13
2019-05-18T11:15:45.457Z,5.23
2019-05-18T11:18:12.307Z,5.03
2019-05-18T11:20:39.114Z,4.77
2019-05-18T11:23:06.273Z,4.77
2019-05-18T11:25:33.594Z,4.67
2019-05-18T11:28:00.424Z,5.03
2019-05-18T11:30:27.491Z,6.20
2019-05-18T11:32:54.353Z,4.77
2019-05-18T11:35:21.459Z,4.47
2019-05-18T11:37:48.214Z,4.77
2019-05-18T11:40:16.837Z,5.37
2019-05-18T11:42:43.721Z,4.43
2019-05-18T11:45:13.013Z,4.13
2019-05-18T11:47:39.820Z,4.20
2019-05-18T11:50:07.937Z,4.20
2019-05-18T11:52:34.740Z,4.90
2019-05-18T11:55:01.648Z,5.03
2019-05-18T11:57:28.455Z,4.10
2019-05-18T11:59:55.320Z,3.60
2019-05-18T12:02:22.520Z,3.30
2019-05-18T12:04:49.402Z,4.03
2019-05-18T12:07:16.435Z,3.37
2019-05-18T12:09:43.266Z,3.67
2019-05-18T12:12:10.022Z,4.47
2019-05-18T12:14:36.795Z,3.73
2019-05-18T12:17:03.706Z,2.90
2019-05-18T12:19:30.577Z,3.10
2019-05-18T12:21:57.412Z,3.83
2019-05-18T12:24:24.098Z,3.10
2019-05-18T12:26:51.051Z,3.47
2019-05-18T12:29:17.879Z,3.50
2019-05-18T12:31:44.823Z,3.50
2019-05-18T12:34:11.697Z,3.43
2019-05-18T12:36:38.506Z,3.53
2019-05-18T12:39:05.724Z,3.57
2019-05-18T12:41:32.965Z,3.53
2019-05-18T12:43:59.731Z,4.23
2019-05-18T12:46:26.668Z,5.20
2019-05-18T12:48:53.457Z,3.80
2019-05-18T12:51:20.338Z,3.53
2019-05-18T12:53:47.259Z,3.43
2019-05-18T12:56:13.945Z,3.93
2019-05-18T12:58:40.848Z,3.77
2019-05-18T13:01:07.621Z,4.40
2019-05-18T13:03:34.441Z,3.73
2019-05-18T13:06:01.289Z,3.70
2019-05-18T13:08:28.195Z,3.40
2019-05-18T13:10:54.952Z,3.57
2019-05-18T13:13:22.025Z,3.03
2019-05-18T13:15:48.850Z,2.93
2019-05-18T13:18:16.207Z,3.80
2019-05-18T13:20:43.082Z,3.10
2019-05-18T13:23:09.907Z,3.20
2019-05-18T13:25:36.663Z,3.67
2019-05-18T13:28:03.568Z,3.67
2019-05-18T13:30:30.399Z,2.80
2019-05-18T13:32:57.211Z,3.77
2019-05-18T13:35:24.368Z,3.07
2019-05-18T13:37:51.668Z,3.37
2019-05-18T13:40:18.648Z,3.03
2019-05-18T13:42:45.769Z,3.37
2019-05-18T13:45:13.239Z,2.63
2019-05-18T13:47:46.941Z,2.70
2019-05-18T13:50:14.287Z,3.40
2019-05-18T13:52:41.102Z,2.73
2019-05-18T13:55:08.093Z,2.83
2019-05-18T13:57:34.965Z,2.43
2019-05-18T14:00:01.899Z,3.30
2019-05-18T14:02:29.026Z,3.20
2019-05-18T14:04:55.960Z,2.83
2019-05-18T14:07:22.711Z,2.73
2019-05-18T14:09:49.514Z,3.30
2019-05-18T14:12:16.387Z,2.50
2019-05-18T14:14:45.562Z,3.30
2019-05-18T14:17:12.322Z,3.50
2019-05-18T14:19:39.202Z,2.80
2019-05-18T14:22:06.104Z,2.60
2019-05-18T14:24:32.970Z,2.93
2019-05-18T14:27:00.194Z,3.00
2019-05-18T14:29:26.956Z,2.47
2019-05-18T14:31:53.833Z,3.20
2019-05-18T14:34:20.966Z,3.00
2019-05-18T14:36:48.092Z,2.30
2019-05-18T14:39:14.958Z,2.60
2019-05-18T14:41:42.560Z,5.17
2019-05-18T14:44:09.832Z,2.63
2019-05-18T14:46:36.663Z,3.33
2019-05-18T14:49:03.534Z,3.93
2019-05-18T14:51:30.364Z,2.20
2019-05-18T14:53:57.624Z,2.60
2019-05-18T14:56:24.874Z,2.80
2019-05-18T14:58:51.779Z,2.33
2019-05-18T15:01:18.767Z,2.57
2019-05-18T15:03:45.634Z,3.73
2019-05-18T15:06:12.458Z,2.40
2019-05-18T15:08:39.370Z,3.03
2019-05-18T15:11:06.330Z,3.13
2019-05-18T15:13:33.081Z,3.87
2019-05-18T15:15:59.884Z,2.30
2019-05-18T15:18:26.756Z,6.13
2019-05-18T15:20:53.714Z,2.63
2019-05-18T15:23:20.576Z,2.40
2019-05-18T15:25:50.523Z,2.40
2019-05-18T15:28:16.179Z,2.30
2019-05-18T15:30:42.995Z,2.45
2019-05-18T15:33:10.205Z,2.08
2019-05-18T15:35:36.979Z,2.20
2019-05-18T15:38:03.907Z,2.10
2019-05-18T15:40:31.022Z,2.70
2019-05-18T15:42:57.779Z,2.67
2019-05-18T15:45:24.882Z,4.03
2019-05-18T15:47:51.858Z,2.87
2019-05-18T15:50:19.266Z,2.80
2019-05-18T15:52:46.196Z,2.98
2019-05-18T15:55:13.078Z,3.58
2019-05-18T15:57:40.051Z,2.30
2019-05-18T16:00:07.542Z,2.27
2019-05-18T16:02:34.301Z,2.57
2019-05-18T16:05:01.614Z,2.90
2019-05-18T16:07:28.696Z,2.60
2019-05-18T16:09:55.470Z,2.47
2019-05-18T16:12:22.276Z,4.83
2019-05-18T16:14:49.772Z,2.50
2019-05-18T16:17:16.706Z,2.10
2019-05-18T16:19:43.763Z,2.60
2019-05-18T16:22:10.663Z,2.87
2019-05-18T16:24:37.586Z,2.53
2019-05-18T16:27:04.444Z,2.33
2019-05-18T16:29:31.233Z,2.67
2019-05-18T16:31:58.148Z,2.93
2019-05-18T16:34:25.477Z,2.90
2019-05-18T16:36:52.332Z,4.10
2019-05-18T16:39:19.291Z,3.20
2019-05-18T16:41:46.092Z,2.73
2019-05-18T16:44:13.336Z,2.80
2019-05-18T16:46:40.349Z,4.50
2019-05-18T16:49:07.287Z,2.80
2019-05-18T16:51:34.125Z,3.90
2019-05-18T16:54:01.416Z,2.63
2019-05-18T16:56:35.104Z,3.13
2019-05-18T16:58:56.958Z,3.83
2019-05-18T17:01:23.812Z,3.30
2019-05-18T17:03:50.578Z,3.37
2019-05-18T17:06:17.479Z,3.30
2019-05-18T17:08:44.422Z,3.03
2019-05-18T17:11:11.311Z,2.97
2019-05-18T17:13:38.192Z,2.93
2019-05-18T17:16:05.008Z,3.60
2019-05-18T17:18:31.767Z,4.23
2019-05-18T17:20:58.764Z,3.23
2019-05-18T17:23:25.642Z,4.00
2019-05-18T17:25:52.517Z,3.87
2019-05-18T17:28:19.347Z,4.17
2019-05-18T17:30:46.215Z,3.80
2019-05-18T17:33:13.136Z,3.87
2019-05-18T17:35:39.991Z,4.10
2019-05-18T17:38:07.111Z,4.23
2019-05-18T17:40:34.011Z,4.17
2019-05-18T17:43:00.804Z,4.00
2019-05-18T17:45:27.627Z,3.63
2019-05-18T17:47:54.472Z,3.90
2019-05-18T17:50:21.532Z,4.47
2019-05-18T17:52:48.313Z,4.10
2019-05-18T17:55:16.485Z,4.00
2019-05-18T17:57:43.680Z,5.57
2019-05-18T18:00:11.779Z,4.43
2019-05-18T18:02:38.868Z,4.60
2019-05-18T18:05:05.734Z,4.43
2019-05-18T18:07:32.515Z,4.43
2019-05-18T18:09:59.436Z,4.40
2019-05-18T18:12:26.300Z,5.50
2019-05-18T18:14:53.459Z,4.77
2019-05-18T18:17:20.385Z,4.43
2019-05-18T18:19:47.259Z,5.23
2019-05-18T18:22:14.545Z,5.23
2019-05-18T18:24:41.321Z,4.63
2019-05-18T18:27:23.803Z,4.50
2019-05-18T18:29:37.149Z,5.07
2019-05-18T18:32:04.086Z,6.30
2019-05-18T18:34:31.359Z,4.40
2019-05-18T18:36:58.185Z,4.80
2019-05-18T18:39:25.099Z,4.77
2019-05-18T18:41:52.312Z,5.60
2019-05-18T18:44:19.094Z,4.63
2019-05-18T18:46:46.006Z,4.77
2019-05-18T18:49:12.764Z,4.90
2019-05-18T18:51:39.562Z,5.07
2019-05-18T18:54:07.975Z,5.10
2019-05-18T18:56:34.778Z,5.20
2019-05-18T18:59:01.688Z,5.20
2019-05-18T19:01:30.615Z,6.50
2019-05-18T19:03:57.932Z,6.13
2019-05-18T19:06:24.817Z,6.23
2019-05-18T19:08:51.578Z,6.37
2019-05-18T19:11:18.511Z,6.60
2019-05-18T19:13:46.033Z,6.13
2019-05-18T19:16:13.332Z,6.47
2019-05-18T19:18:40.720Z,7.43
2019-05-18T19:21:07.509Z,7.97
2019-05-18T19:23:34.453Z,7.33
2019-05-18T19:26:01.216Z,8.10
2019-05-18T19:28:28.412Z,8.60
2019-05-18T19:30:55.166Z,8.50
2019-05-18T19:33:21.926Z,10.23
2019-05-18T19:35:48.893Z,9.03
2019-05-18T19:38:16.606Z,9.30
2019-05-18T19:40:43.750Z,9.70
2019-05-18T19:43:10.694Z,9.03
2019-05-18T19:45:37.677Z,9.53
2019-05-18T19:48:04.821Z,9.17
2019-05-18T19:50:31.684Z,9.30
2019-05-18T19:52:58.466Z,9.87
2019-05-18T19:55:25.333Z,10.30
2019-05-18T19:57:52.195Z,11.00
2019-05-18T20:00:19.324Z,10.97
2019-05-18T20:02:46.130Z,11.67
2019-05-18T20:05:13.361Z,10.80
2019-05-18T20:07:40.493Z,11.40
2019-05-18T20:10:09.219Z,12.23
2019-05-18T20:12:36.457Z,12.53
2019-05-18T20:15:03.745Z,13.47
2019-05-18T20:17:30.497Z,13.43
2019-05-18T20:19:57.643Z,14.27
2019-05-18T20:22:24.885Z,13.17
2019-05-18T20:24:51.679Z,13.83
2019-05-18T20:27:18.613Z,13.47
2019-05-18T20:29:45.390Z,14.27
2019-05-18T20:32:12.269Z,17.53
2019-05-18T20:34:39.219Z,18.13
2019-05-18T20:37:06.136Z,17.27
2019-05-18T20:39:33.364Z,17.90
2019-05-18T20:42:00.279Z,17.67
2019-05-18T20:44:27.467Z,18.23
2019-05-18T20:46:54.410Z,22.23
2019-05-18T20:49:21.777Z,17.57
2019-05-18T20:51:48.553Z,18.73
2019-05-18T20:54:16.696Z,18.03
2019-05-18T20:56:43.458Z,17.63
2019-05-18T20:59:10.232Z,18.13
2019-05-18T21:01:37.485Z,19.07
2019-05-18T21:04:04.469Z,18.50
2019-05-18T21:06:31.706Z,18.53
2019-05-18T21:08:58.729Z,19.57
2019-05-18T21:11:25.474Z,18.63
2019-05-18T21:13:52.397Z,20.63
2019-05-18T21:16:19.179Z,19.83
2019-05-18T21:18:46.179Z,21.90
2019-05-18T21:21:13.286Z,21.77
2019-05-18T21:23:40.200Z,22.60
2019-05-18T21:26:08.177Z,24.40
2019-05-18T21:28:53.392Z,25.13
2019-05-18T21:31:09.549Z,24.33
2019-05-18T21:33:36.798Z,23.70
2019-05-18T21:36:04.051Z,26.40
2019-05-18T21:38:31.155Z,25.17
2019-05-18T21:40:59.074Z,24.23
2019-05-18T21:43:26.246Z,25.20
2019-05-18T21:45:53.128Z,23.77
2019-05-18T21:48:19.961Z,22.23
2019-05-18T21:50:46.886Z,21.27
2019-05-18T21:53:13.796Z,21.43
2019-05-18T21:55:40.612Z,20.03
2019-05-18T21:58:07.376Z,19.83
2019-05-18T22:00:34.423Z,21.50
2019-05-18T22:03:01.429Z,20.30
2019-05-18T22:05:28.228Z,19.43
2019-05-18T22:07:55.608Z,18.93
2019-05-18T22:10:25.896Z,20.50
2019-05-18T22:12:51.484Z,18.30
2019-05-18T22:15:18.361Z,18.43
2019-05-18T22:18:03.468Z,17.90
2019-05-18T22:20:31.061Z,18.03
2019-05-18T22:22:57.928Z,18.07
2019-05-18T22:25:24.732Z,17.03
2019-05-18T22:27:51.625Z,16.53
2019-05-18T22:30:18.774Z,17.50
2019-05-18T22:32:45.661Z,17.83
2019-05-18T22:35:12.530Z,19.67
2019-05-18T22:37:39.301Z,22.33
2019-05-18T22:40:06.215Z,21.53
2019-05-18T22:42:33.067Z,25.60
2019-05-18T22:44:59.881Z,25.40
2019-05-18T22:47:26.649Z,25.97
2019-05-18T22:49:53.908Z,25.63
2019-05-18T22:52:21.072Z,25.20
2019-05-18T22:54:48.034Z,28.50
2019-05-18T22:57:14.851Z,27.77
2019-05-18T22:59:41.733Z,30.00
2019-05-18T23:02:08.508Z,34.63
2019-05-18T23:04:35.955Z,34.60
2019-05-18T23:07:02.842Z,36.17
2019-05-18T23:09:29.655Z,36.80
2019-05-18T23:11:57.029Z,37.77
2019-05-18T23:14:23.808Z,37.23
2019-05-18T23:16:51.222Z,35.33
2019-05-18T23:19:17.996Z,35.40
2019-05-18T23:21:44.841Z,35.03
2019-05-18T23:24:11.670Z,32.67
2019-05-18T23:26:38.420Z,32.97
2019-05-18T23:29:05.779Z,32.47
2019-05-18T23:31:32.535Z,32.77
2019-05-18T23:33:59.287Z,32.53
2019-05-18T23:36:26.228Z,30.70
2019-05-18T23:38:53.357Z,29.57
2019-05-18T23:41:20.205Z,30.17
2019-05-18T23:43:48.363Z,26.47
2019-05-18T23:46:15.115Z,25.43
2019-05-18T23:48:41.883Z,27.73
2019-05-18T23:51:08.776Z,26.03
2019-05-18T23:53:35.527Z,25.07
2019-05-18T23:56:02.351Z,27.87
2019-05-18T23:58:29.288Z,29.93
